Airfield :
LOGIN :

Register | Disclaimer

   EN    FR    IT 

 










Legend :    VFR   Marginal VFR   IFR   Intensive IFR   Very Intensive IFR
Visi :
Ceiling :
>= 8 km
>= 3000ft
5 to 8 km
1000 to 3000 ft
1500m to 5 km
500 to 1000 ft
800 to 1500m
200 to 500 ft
< 800m
< 200 ft
Symbols :   Thunderstorms  Fog  Heavy snow  Heavy precipitations  Wind > 20 kt
SIGMETs :     Misc.  Thunderstorms  Icing  Turbulence  Mountain Waves  Volcanic Ashes







- Airport Elevation : 290 ft
- IATA code : LAI
- Download approach charts


LFRO - Lannion

CURRENT METAR :
  • 230230Z AUTO 26008KT 230V290 9999 OVC005 12/11 Q1021

EXPIRED METARs :
  • 230200Z AUTO 26008KT 9999 OVC005 12/11 Q1021
  • 230130Z AUTO 27009KT 9999 OVC006 12/11 Q1021
  • 230100Z AUTO 27009KT 9999 OVC006 12/11 Q1021
  • 230030Z AUTO 27008KT 9999 OVC007 12/11 Q1021
  • 230000Z AUTO 28009KT 9999 OVC006 12/11 Q1021

TAF AMD TAF LFRO
Valid from the 22 at 15:00 until the 23 at 12:00 UTC


221554Z 2215/2312 28012KT CAVOK
BECMG 2218/2220 BKN014
BECMG 2220/2222 BKN005
PROB30
TEMPO 2222/2306 3000 BR OVC003
BECMG 2308/2310 BKN016
No reported NOTAMs for that airfield.



MET'MAP, your aeronautical weather chart ! - Copyright ORBIFLY December 2007 - Disclaimer

ORBIFLY MET'MAP TEAM :

Programming & Development : Alexandra Zaïnal
Concept & Development : Baudouin d'Aumeries
Co-Development & Prog : Marc-Olivier Méhu
Technical & hardware support : Manuel Goepfert

Contact : metmap@orbifly.com




SOURCES & CREDITS :

   NOAA